Time;durP1;ratioP1;P1;durP2;ratioP2;P2;SDS_P1;SDS_P2;PMS_P1;PMS_P2;Temp;Humidity;BMP_temperature;BMP_pressure;BME280_temperature;BME280_humidity;BME280_pressure;Samples;Min_cycle;Max_cycle;Signal;HPM_P1;HPM_P2
2023/02/11 00:01:26;;;;;;;20.90;6.78;;;-0.80;83.20;;;;;;4982102;28;87264;-72
2023/02/11 00:03:52;;;;;;;19.20;6.82;;;-0.80;82.90;;;;;;4984937;28;86379;-72
2023/02/11 00:06:18;;;;;;;18.88;7.43;;;-0.80;82.10;;;;;;4977619;28;88153;-73
2023/02/11 00:08:44;;;;;;;18.23;6.63;;;-0.80;82.50;;;;;;4971894;28;87371;-72
2023/02/11 00:11:15;;;;;;;17.05;6.63;;;-0.80;83.00;;;;;;4964757;28;88275;-73
2023/02/11 00:13:41;;;;;;;16.27;6.20;;;-0.90;82.90;;;;;;4980783;28;87402;-72
2023/02/11 00:16:09;;;;;;;17.55;6.28;;;-0.90;83.40;;;;;;4982944;28;88169;-72
2023/02/11 00:18:35;;;;;;;20.45;6.72;;;-0.90;83.40;;;;;;4978149;28;87322;-74
2023/02/11 00:21:06;;;;;;;16.77;6.25;;;-1.00;83.50;;;;;;4978184;28;87306;-72
2023/02/11 00:23:32;;;;;;;16.02;5.75;;;-1.00;83.90;;;;;;4977858;28;87853;-70
2023/02/11 00:25:57;;;;;;;20.60;6.38;;;-1.00;83.60;;;;;;4977857;28;88131;-73
2023/02/11 00:28:23;;;;;;;18.02;6.10;;;-0.90;83.60;;;;;;4978064;28;87955;-72
2023/02/11 00:30:57;;;;;;;18.77;6.30;;;-1.00;83.20;;;;;;4986102;28;87384;-72
2023/02/11 00:33:23;;;;;;;15.20;5.35;;;-0.90;83.10;;;;;;4984876;28;87497;-71
2023/02/11 00:35:49;;;;;;;15.15;5.53;;;-0.90;82.80;;;;;;4977099;28;89132;-72
2023/02/11 00:38:15;;;;;;;14.00;4.80;;;-0.90;82.10;;;;;;4976906;28;88231;-71
2023/02/11 00:40:41;;;;;;;13.85;4.70;;;-0.80;81.50;;;;;;4977488;28;87233;-72
2023/02/11 00:43:07;;;;;;;10.80;3.83;;;-0.70;80.60;;;;;;4978519;28;87266;-72
2023/02/11 00:45:32;;;;;;;10.60;3.78;;;-0.50;79.60;;;;;;4976743;28;87823;-72
2023/02/11 00:47:58;;;;;;;10.35;3.72;;;-0.40;78.90;;;;;;4977324;28;87548;-73
2023/02/11 00:50:25;;;;;;;12.50;4.13;;;-0.30;78.40;;;;;;4978594;28;87432;-73
2023/02/11 00:52:51;;;;;;;14.68;4.03;;;-0.30;77.40;;;;;;4977713;28;86616;-72
2023/02/11 00:55:16;;;;;;;12.25;4.38;;;-0.30;78.50;;;;;;4977914;28;87629;-72
2023/02/11 00:57:42;;;;;;;15.02;4.97;;;-0.40;78.90;;;;;;4977479;28;88027;-73
2023/02/11 01:00:09;;;;;;;13.20;4.80;;;-0.40;79.20;;;;;;4977352;28;88057;-72
2023/02/11 01:02:35;;;;;;;21.63;5.15;;;-0.50;79.80;;;;;;4977953;28;87288;-74
2023/02/11 01:05:01;;;;;;;12.95;4.82;;;-0.60;80.60;;;;;;4977682;28;88538;-72
2023/02/11 01:07:27;;;;;;;14.43;4.90;;;-0.70;80.80;;;;;;4976670;28;87475;-71
2023/02/11 01:09:53;;;;;;;12.57;4.20;;;-0.70;80.90;;;;;;4977801;28;88630;-72
2023/02/11 01:12:19;;;;;;;10.80;3.78;;;-0.70;80.90;;;;;;4977353;28;87382;-72
2023/02/11 01:14:45;;;;;;;10.70;3.90;;;-0.60;80.70;;;;;;4981347;28;87592;-72
2023/02/11 01:17:10;;;;;;;11.32;3.35;;;-0.70;80.40;;;;;;4984743;28;87890;-72
2023/02/11 01:19:37;;;;;;;10.95;3.58;;;-0.70;80.10;;;;;;4977676;28;87377;-71
2023/02/11 01:22:03;;;;;;;11.07;3.15;;;-0.70;79.90;;;;;;4979411;28;87205;-73
2023/02/11 01:24:28;;;;;;;10.88;3.13;;;-0.70;79.80;;;;;;4983374;28;88606;-71
2023/02/11 01:26:55;;;;;;;9.90;2.97;;;-0.60;79.60;;;;;;4977340;28;89407;-72
2023/02/11 01:29:20;;;;;;;7.82;2.95;;;-0.60;78.70;;;;;;4975840;28;87456;-70
2023/02/11 01:31:46;;;;;;;9.02;2.40;;;-0.60;78.20;;;;;;4993705;28;87543;-71
2023/02/11 01:34:12;;;;;;;6.57;2.10;;;-0.50;77.80;;;;;;4985519;28;88058;-73
2023/02/11 01:36:38;;;;;;;8.77;2.35;;;-0.50;77.30;;;;;;4984570;28;87319;-71
2023/02/11 01:39:04;;;;;;;7.65;2.60;;;-0.40;77.20;;;;;;4977946;28;87343;-71
2023/02/11 01:41:29;;;;;;;7.03;2.22;;;-0.30;76.80;;;;;;4979644;28;86527;-71
2023/02/11 01:43:55;;;;;;;6.47;2.30;;;-0.30;77.30;;;;;;4986633;28;88047;-71
2023/02/11 01:46:37;;;;;;;8.25;2.35;;;-0.40;77.50;;;;;;4994914;28;87263;-72
2023/02/11 01:49:08;;;;;;;7.50;2.30;;;-0.40;77.30;;;;;;4990322;28;88254;-70
2023/02/11 01:51:45;;;;;;;8.65;2.67;;;-0.40;77.60;;;;;;4980349;28;87503;-71
2023/02/11 01:59:58;;;;;;;7.38;2.25;;;-0.50;78.90;;;;;;4979255;28;87806;-73
2023/02/11 02:02:36;;;;;;;10.88;2.30;;;-0.60;78.60;;;;;;4994246;28;87005;-72
2023/02/11 02:05:22;;;;;;;7.63;2.45;;;-0.60;78.70;;;;;;4983563;28;87724;-72
2023/02/11 02:07:57;;;;;;;8.07;2.58;;;-0.60;78.90;;;;;;4968077;28;88103;-72
2023/02/11 02:10:25;;;;;;;9.07;2.60;;;-0.60;79.10;;;;;;4985991;28;87115;-72
2023/02/11 02:12:51;;;;;;;8.50;2.75;;;-0.60;79.40;;;;;;4980631;28;87032;-72
2023/02/11 02:15:22;;;;;;;9.13;3.25;;;-0.60;79.50;;;;;;4979402;28;88725;-72
2023/02/11 02:18:11;;;;;;;10.20;3.42;;;-0.70;79.50;;;;;;4979423;28;89387;-72
2023/02/11 02:20:55;;;;;;;10.82;3.38;;;-0.70;80.60;;;;;;4971425;28;87028;-71
2023/02/11 02:23:40;;;;;;;11.52;3.67;;;-0.70;80.00;;;;;;4980344;28;87469;-71
2023/02/11 02:26:31;;;;;;;12.30;3.65;;;-0.70;79.90;;;;;;4969274;28;87583;-72
2023/02/11 02:29:00;;;;;;;11.38;3.70;;;-0.70;80.10;;;;;;4959665;28;88795;-71
2023/02/11 02:31:47;;;;;;;9.20;3.67;;;-0.80;80.50;;;;;;4996177;28;87453;-69
2023/02/11 02:34:24;;;;;;;10.75;3.85;;;-0.80;81.20;;;;;;4980549;28;86537;-71
2023/02/11 02:37:17;;;;;;;12.38;4.28;;;-0.90;81.60;;;;;;4978996;28;88112;-71
2023/02/11 02:39:47;;;;;;;12.00;4.45;;;-1.00;82.00;;;;;;4979490;28;87450;-72
2023/02/11 02:42:13;;;;;;;11.48;4.20;;;-1.10;82.10;;;;;;4979245;28;88462;-71
2023/02/11 02:44:39;;;;;;;11.80;3.97;;;-1.20;82.30;;;;;;4985470;28;87754;-70
2023/02/11 02:47:05;;;;;;;11.23;4.03;;;-1.20;82.10;;;;;;4979499;28;88179;-72
2023/02/11 02:49:30;;;;;;;15.48;4.38;;;-1.20;81.80;;;;;;4979497;28;87940;-72
2023/02/11 02:52:02;;;;;;;16.35;4.55;;;-1.20;82.00;;;;;;4979632;28;87379;-73
2023/02/11 02:55:07;;;;;;;12.50;4.18;;;-1.30;82.40;;;;;;4978923;28;87395;-71
2023/02/11 02:57:52;;;;;;;14.52;4.45;;;-1.30;82.70;;;;;;4979244;28;87622;-72
2023/02/11 03:00:28;;;;;;;12.27;4.30;;;-1.30;82.90;;;;;;4979459;28;87345;-70
2023/02/11 03:03:08;;;;;;;14.80;4.60;;;-1.30;82.40;;;;;;4979449;28;87462;-71
2023/02/11 03:05:50;;;;;;;10.90;4.03;;;-1.30;82.90;;;;;;4979713;28;87298;-71
2023/02/11 03:08:27;;;;;;;12.13;4.40;;;-1.40;82.90;;;;;;4978121;28;89255;-71
2023/02/11 03:10:55;;;;;;;15.70;3.97;;;-1.40;83.00;;;;;;4985863;28;89201;-71
2023/02/11 03:13:26;;;;;;;14.77;4.63;;;-1.40;83.10;;;;;;4988132;28;87348;-71
2023/02/11 03:15:55;;;;;;;13.63;5.00;;;-1.40;83.20;;;;;;4979433;28;87356;-71
2023/02/11 03:18:25;;;;;;;14.20;4.05;;;-1.50;83.30;;;;;;4992912;28;87667;-73
2023/02/11 03:20:53;;;;;;;13.80;4.60;;;-1.50;83.00;;;;;;4979143;28;87758;-72
2023/02/11 03:23:38;;;;;;;14.80;4.35;;;-1.50;83.30;;;;;;4987188;28;87351;-71
2023/02/11 03:26:15;;;;;;;16.25;5.35;;;-1.50;83.60;;;;;;4978971;28;86972;-75
2023/02/11 03:28:58;;;;;;;14.90;4.70;;;-1.50;84.00;;;;;;4965302;28;88254;-71
2023/02/11 03:31:37;;;;;;;13.02;4.03;;;-1.60;84.40;;;;;;4982092;28;87573;-70
2023/02/11 03:34:13;;;;;;;10.98;3.95;;;-1.60;84.20;;;;;;4994811;28;88153;-72
2023/02/11 03:36:48;;;;;;;13.60;4.82;;;-1.60;84.10;;;;;;4978835;28;87509;-71
2023/02/11 03:39:22;;;;;;;12.15;4.50;;;-1.60;84.40;;;;;;4981252;28;87661;-72
2023/02/11 03:41:50;;;;;;;13.35;4.35;;;-1.60;84.50;;;;;;4989443;28;88433;-72
2023/02/11 03:44:17;;;;;;;15.07;4.88;;;-1.70;84.80;;;;;;4978082;28;88288;-71
2023/02/11 03:46:48;;;;;;;14.90;5.13;;;-1.70;85.60;;;;;;4978686;28;87367;-72
2023/02/11 03:49:16;;;;;;;14.05;5.03;;;-1.70;86.10;;;;;;4990869;28;88192;-71
2023/02/11 03:51:43;;;;;;;13.27;4.60;;;-1.70;86.10;;;;;;4978145;28;88349;-72
2023/02/11 03:54:17;;;;;;;14.15;5.10;;;-1.60;86.00;;;;;;4977882;28;87347;-71
2023/02/11 03:56:52;;;;;;;11.75;4.40;;;-1.60;85.50;;;;;;4983363;28;87306;-71
2023/02/11 03:59:18;;;;;;;13.20;4.40;;;-1.60;85.30;;;;;;4977944;28;88793;-71
2023/02/11 04:01:43;;;;;;;11.73;4.43;;;-1.60;85.50;;;;;;4976712;28;89803;-72
2023/02/11 04:04:09;;;;;;;14.50;4.80;;;-1.60;85.40;;;;;;4977342;28;87310;-71
2023/02/11 04:06:35;;;;;;;12.75;4.47;;;-1.60;85.40;;;;;;4990318;28;87181;-72
2023/02/11 04:09:01;;;;;;;16.15;4.35;;;-1.60;84.90;;;;;;4978236;28;87619;-71
2023/02/11 04:11:27;;;;;;;13.75;4.35;;;-1.60;84.70;;;;;;4978277;28;89155;-72
2023/02/11 04:13:52;;;;;;;12.85;4.35;;;-1.50;84.70;;;;;;4986566;28;87575;-72
2023/02/11 04:16:18;;;;;;;11.85;4.57;;;-1.60;84.30;;;;;;4975195;28;87069;-70
2023/02/11 04:18:44;;;;;;;16.77;5.10;;;-1.60;84.10;;;;;;4977768;28;87362;-72
2023/02/11 04:21:10;;;;;;;11.45;4.00;;;-1.60;84.10;;;;;;4976200;28;89428;-71
2023/02/11 04:23:36;;;;;;;11.27;4.53;;;-1.60;84.30;;;;;;4994823;28;88368;-71
2023/02/11 04:26:02;;;;;;;11.73;4.55;;;-1.60;83.90;;;;;;4986712;28;87400;-72
2023/02/11 04:28:28;;;;;;;14.95;4.47;;;-1.50;83.70;;;;;;4994322;28;88995;-71
2023/02/11 04:30:54;;;;;;;12.68;4.35;;;-1.60;83.80;;;;;;4986084;28;87475;-72
2023/02/11 04:33:21;;;;;;;13.77;4.85;;;-1.70;84.60;;;;;;4993792;28;87178;-73
2023/02/11 04:35:47;;;;;;;12.65;3.80;;;-1.70;84.20;;;;;;4979307;28;87424;-72
2023/02/11 04:38:13;;;;;;;18.05;4.70;;;-1.70;83.60;;;;;;4977434;28;88140;-70
2023/02/11 04:40:39;;;;;;;10.38;4.30;;;-1.70;84.20;;;;;;4978177;28;87892;-71
2023/02/11 04:43:05;;;;;;;15.38;4.72;;;-1.70;84.80;;;;;;4976455;28;87297;-70
2023/02/11 04:45:30;;;;;;;17.20;5.20;;;-1.70;85.20;;;;;;4974978;28;87290;-70
2023/02/11 04:47:56;;;;;;;17.00;4.72;;;-1.70;85.70;;;;;;4977008;28;89038;-71
2023/02/11 04:50:22;;;;;;;12.88;4.53;;;-1.70;85.70;;;;;;4978008;28;88237;-71
2023/02/11 04:52:47;;;;;;;15.55;5.10;;;-1.70;86.00;;;;;;4982672;28;87223;-71
2023/02/11 04:55:13;;;;;;;11.25;4.30;;;-1.70;86.60;;;;;;4977536;28;87463;-71
2023/02/11 04:57:39;;;;;;;15.40;4.70;;;-1.60;86.80;;;;;;4977529;28;88529;-70
2023/02/11 05:00:05;;;;;;;13.32;4.40;;;-1.60;86.80;;;;;;4970245;28;88840;-70
2023/02/11 05:02:31;;;;;;;11.60;4.45;;;-1.60;86.70;;;;;;4966206;28;87805;-71
2023/02/11 05:04:56;;;;;;;13.00;4.85;;;-1.50;86.30;;;;;;4969336;28;86730;-73
2023/02/11 05:07:22;;;;;;;14.15;4.95;;;-1.50;86.30;;;;;;4973474;28;90360;-69
2023/02/11 05:09:48;;;;;;;14.35;4.47;;;-1.50;86.30;;;;;;4978612;28;88034;-70
2023/02/11 05:12:14;;;;;;;13.38;4.57;;;-1.50;86.40;;;;;;4976208;28;88303;-71
2023/02/11 05:14:40;;;;;;;10.52;3.90;;;-1.50;86.40;;;;;;4979492;28;87357;-69
2023/02/11 05:17:05;;;;;;;14.93;4.45;;;-1.50;86.30;;;;;;4979242;28;88590;-70
2023/02/11 05:19:31;;;;;;;12.02;4.20;;;-1.40;86.00;;;;;;4980837;28;87377;-72
2023/02/11 05:21:57;;;;;;;12.30;3.72;;;-1.40;85.40;;;;;;4987422;28;87616;-70
2023/02/11 05:24:23;;;;;;;12.95;3.33;;;-1.40;84.90;;;;;;4982828;28;87667;-70
2023/02/11 05:26:48;;;;;;;13.20;3.65;;;-1.40;84.60;;;;;;4990878;28;87962;-72
2023/02/11 05:29:14;;;;;;;12.50;3.85;;;-1.40;84.50;;;;;;4986199;28;87257;-71
2023/02/11 05:31:40;;;;;;;11.77;3.95;;;-1.40;84.30;;;;;;4990121;28;87584;-72
2023/02/11 05:34:05;;;;;;;12.10;3.83;;;-1.50;84.20;;;;;;4991924;28;88303;-70
2023/02/11 05:36:31;;;;;;;15.93;3.80;;;-1.50;84.00;;;;;;4979621;28;88299;-70
2023/02/11 05:38:57;;;;;;;11.13;3.80;;;-1.40;83.80;;;;;;4990876;28;88864;-71
2023/02/11 05:41:23;;;;;;;11.27;3.83;;;-1.40;83.80;;;;;;4980712;28;87288;-72
2023/02/11 05:43:52;;;;;;;10.50;3.70;;;-1.50;83.90;;;;;;4980064;28;87453;-71
2023/02/11 05:46:18;;;;;;;15.10;3.65;;;-1.40;83.80;;;;;;4989733;28;88542;-71
2023/02/11 05:48:44;;;;;;;11.18;4.00;;;-1.50;84.00;;;;;;4987282;28;87756;-71
2023/02/11 05:51:09;;;;;;;10.95;3.90;;;-1.50;83.90;;;;;;4980919;28;87121;-72
2023/02/11 05:53:35;;;;;;;13.63;4.15;;;-1.50;84.00;;;;;;4997511;28;86639;-71
2023/02/11 05:56:01;;;;;;;13.45;4.35;;;-1.50;84.90;;;;;;4987066;28;87493;-71
2023/02/11 05:58:27;;;;;;;11.73;4.70;;;-1.50;84.30;;;;;;4984321;28;87663;-72
2023/02/11 06:00:53;;;;;;;10.77;3.65;;;-1.50;84.20;;;;;;4978513;28;89815;-71
2023/02/11 06:03:18;;;;;;;12.18;4.03;;;-1.40;84.00;;;;;;4975148;28;87396;-70
2023/02/11 06:05:44;;;;;;;11.25;3.75;;;-1.40;83.90;;;;;;4977385;28;88077;-73
2023/02/11 06:08:10;;;;;;;14.65;4.00;;;-1.50;84.10;;;;;;4967767;28;89887;-71
2023/02/11 06:10:36;;;;;;;11.50;3.95;;;-1.50;84.10;;;;;;4972502;28;87516;-70
2023/02/11 06:13:02;;;;;;;12.65;4.00;;;-1.60;85.20;;;;;;4979612;28;87673;-70
2023/02/11 06:15:28;;;;;;;11.77;3.67;;;-1.60;85.20;;;;;;4982785;28;88497;-70
2023/02/11 06:17:53;;;;;;;7.65;2.75;;;-1.60;85.60;;;;;;4974913;28;88418;-70
2023/02/11 06:20:19;;;;;;;11.60;3.22;;;-1.50;84.80;;;;;;4972837;28;87559;-72
2023/02/11 06:22:45;;;;;;;10.15;3.20;;;-1.50;84.60;;;;;;4967491;28;87486;-68
2023/02/11 06:25:11;;;;;;;9.40;2.80;;;-1.50;84.30;;;;;;4971681;28;89020;-71
2023/02/11 06:27:37;;;;;;;10.75;3.03;;;-1.50;83.60;;;;;;4976513;28;89275;-71
2023/02/11 06:30:05;;;;;;;10.13;2.85;;;-1.40;83.60;;;;;;4978229;28;88378;-70
2023/02/11 06:32:31;;;;;;;7.90;2.83;;;-1.40;83.30;;;;;;4980030;28;87536;-71
2023/02/11 06:34:57;;;;;;;11.43;3.28;;;-1.40;83.10;;;;;;4976450;28;88146;-70
2023/02/11 06:37:22;;;;;;;8.45;2.78;;;-1.40;83.80;;;;;;4974711;28;87533;-71
2023/02/11 06:39:48;;;;;;;8.70;2.83;;;-1.40;83.80;;;;;;4966560;28;87389;-68
2023/02/11 06:42:14;;;;;;;12.23;2.80;;;-1.40;83.60;;;;;;4975570;28;88335;-71
2023/02/11 06:44:40;;;;;;;10.57;3.63;;;-1.40;83.70;;;;;;4975516;28;87797;-72
2023/02/11 06:47:06;;;;;;;11.60;2.72;;;-1.40;84.00;;;;;;4976321;28;87910;-73
2023/02/11 06:49:31;;;;;;;7.88;2.60;;;-1.30;83.70;;;;;;4976787;28;88165;-72
2023/02/11 06:51:57;;;;;;;8.05;2.63;;;-1.30;83.40;;;;;;4977111;28;87500;-72
2023/02/11 06:54:23;;;;;;;8.13;2.30;;;-1.20;82.40;;;;;;4976569;28;88178;-72
2023/02/11 06:56:49;;;;;;;7.97;1.95;;;-1.10;82.10;;;;;;4976525;28;87759;-70
2023/02/11 06:59:16;;;;;;;8.30;2.03;;;-1.00;81.60;;;;;;4981286;28;87336;-72
2023/02/11 07:01:43;;;;;;;10.80;2.13;;;-0.90;80.90;;;;;;4983020;28;87419;-71
2023/02/11 07:04:09;;;;;;;8.48;2.10;;;-0.80;80.30;;;;;;4987283;28;88123;-70
2023/02/11 07:06:36;;;;;;;8.85;2.40;;;-0.70;79.70;;;;;;4977236;28;88653;-73
2023/02/11 07:09:03;;;;;;;9.00;3.00;;;-0.60;79.30;;;;;;4996208;28;87364;-70
2023/02/11 07:11:29;;;;;;;10.70;3.67;;;-0.50;79.80;;;;;;4971458;28;89134;-70
2023/02/11 07:14:04;;;;;;;9.45;3.88;;;-0.50;81.00;;;;;;4972435;28;88966;-71
2023/02/11 07:16:31;;;;;;;13.15;4.47;;;-0.50;81.60;;;;;;4973623;28;88269;-70
2023/02/11 07:18:57;;;;;;;11.02;4.07;;;-0.40;81.80;;;;;;4976393;28;87725;-70
2023/02/11 07:21:23;;;;;;;12.35;3.95;;;-0.30;81.30;;;;;;4976459;28;87198;-72
2023/02/11 07:23:49;;;;;;;10.52;4.13;;;-0.20;80.70;;;;;;4965382;28;88011;-70
2023/02/11 07:26:18;;;;;;;13.13;4.40;;;-0.10;80.30;;;;;;4981817;28;87541;-71
2023/02/11 07:28:44;;;;;;;13.80;5.40;;;-0.20;80.30;;;;;;4982089;28;87668;-71
2023/02/11 07:31:25;;;;;;;15.07;5.63;;;-0.30;80.30;;;;;;4970274;28;89164;-70
2023/02/11 07:33:52;;;;;;;15.05;5.78;;;-0.20;81.20;;;;;;4962652;28;87871;-70
2023/02/11 07:36:19;;;;;;;18.27;6.18;;;-0.30;80.30;;;;;;4968243;28;87612;-72
2023/02/11 07:38:44;;;;;;;15.32;5.72;;;-0.20;80.20;;;;;;4983541;28;88458;-72
2023/02/11 07:41:13;;;;;;;13.43;5.18;;;-0.10;79.80;;;;;;4970645;28;87060;-71
2023/02/11 07:43:40;;;;;;;14.65;5.15;;;-0.20;79.00;;;;;;4986098;28;88155;-71
2023/02/11 07:46:12;;;;;;;13.13;5.35;;;-0.10;78.70;;;;;;4974604;28;87739;-70
2023/02/11 07:48:37;;;;;;;11.10;4.75;;;0.00;78.40;;;;;;4975706;28;87071;-71
2023/02/11 07:51:16;;;;;;;16.92;5.43;;;0.10;78.00;;;;;;4979752;28;87669;-70
2023/02/11 07:53:42;;;;;;;22.58;6.68;;;0.20;78.10;;;;;;4996283;28;87651;-71
2023/02/11 07:56:09;;;;;;;14.50;6.05;;;0.20;77.60;;;;;;4975369;28;87297;-71
2023/02/11 07:58:35;;;;;;;13.77;5.25;;;0.20;78.00;;;;;;4976827;28;87612;-70
2023/02/11 08:01:02;;;;;;;11.35;4.32;;;1.60;76.90;;;;;;4973953;28;87837;-72
2023/02/11 08:03:28;;;;;;;10.63;4.53;;;2.90;70.50;;;;;;4983997;28;88599;-70
2023/02/11 08:05:54;;;;;;;17.63;4.47;;;3.30;67.70;;;;;;4975657;28;88292;-70
2023/02/11 08:08:20;;;;;;;12.35;4.38;;;3.80;69.00;;;;;;4977954;28;88874;-72
2023/02/11 08:10:45;;;;;;;11.90;4.45;;;6.00;63.70;;;;;;4969782;28;87511;-70
2023/02/11 08:13:11;;;;;;;12.52;4.05;;;8.20;55.90;;;;;;4969204;28;88736;-69
2023/02/11 08:15:37;;;;;;;10.30;4.20;;;7.50;55.40;;;;;;4969058;28;90897;-72
2023/02/11 08:18:02;;;;;;;11.18;4.22;;;6.50;57.40;;;;;;4965931;28;88634;-72
2023/02/11 08:20:28;;;;;;;10.75;4.35;;;5.70;58.80;;;;;;4965028;28;86640;-73
2023/02/11 08:22:54;;;;;;;10.63;3.70;;;5.00;59.60;;;;;;4968685;28;88371;-71
2023/02/11 08:25:19;;;;;;;11.15;3.70;;;4.30;63.00;;;;;;4966726;28;88329;-71
2023/02/11 08:27:45;;;;;;;13.20;4.18;;;4.00;63.80;;;;;;4968960;28;88254;-70
2023/02/11 08:30:11;;;;;;;14.38;3.90;;;3.60;64.70;;;;;;4965807;28;87483;-73
2023/02/11 08:32:38;;;;;;;11.10;3.63;;;3.40;65.60;;;;;;4965830;28;87528;-71
2023/02/11 08:35:06;;;;;;;9.70;3.95;;;3.50;66.60;;;;;;4967792;28;87162;-70
2023/02/11 08:37:32;;;;;;;11.48;4.78;;;3.70;64.90;;;;;;4965726;28;87565;-70
2023/02/11 08:39:58;;;;;;;13.10;4.13;;;3.70;65.50;;;;;;4968854;28;87391;-71
2023/02/11 08:42:23;;;;;;;9.68;4.18;;;3.80;66.10;;;;;;4966913;28;88831;-70
2023/02/11 08:44:49;;;;;;;16.63;4.03;;;4.00;66.00;;;;;;4968658;28;86938;-70
2023/02/11 08:47:15;;;;;;;18.73;4.07;;;4.10;65.40;;;;;;4972624;28;87653;-71
2023/02/11 08:49:41;;;;;;;9.15;3.83;;;4.70;64.40;;;;;;4963940;28;87100;-71
2023/02/11 08:52:07;;;;;;;12.55;4.35;;;5.30;63.30;;;;;;4961908;28;88535;-70
2023/02/11 08:54:33;;;;;;;12.27;4.85;;;5.40;61.50;;;;;;4971922;28;87433;-68
2023/02/11 08:57:00;;;;;;;12.18;4.80;;;7.00;60.10;;;;;;4965542;28;87573;-70
2023/02/11 08:59:26;;;;;;;10.30;4.70;;;7.70;56.90;;;;;;4966150;28;87334;-73
2023/02/11 09:01:52;;;;;;;11.13;5.30;;;8.90;56.50;;;;;;4966637;28;88088;-72
2023/02/11 09:04:18;;;;;;;12.32;4.95;;;10.10;52.50;;;;;;4969242;28;87803;-71
2023/02/11 09:06:44;;;;;;;12.60;5.95;;;10.30;52.00;;;;;;4963264;28;89146;-70
2023/02/11 09:09:14;;;;;;;15.40;6.72;;;11.60;51.10;;;;;;4965980;28;87190;-71
2023/02/11 09:11:42;;;;;;;16.30;7.45;;;11.40;50.10;;;;;;4965303;28;87366;-72
2023/02/11 09:14:20;;;;;;;16.17;7.95;;;10.70;51.50;;;;;;4974237;28;88277;-73
2023/02/11 09:16:46;;;;;;;15.55;7.43;;;9.80;53.00;;;;;;4976906;28;88357;-77
2023/02/11 09:19:12;;;;;;;18.65;7.57;;;9.20;54.50;;;;;;4975817;28;87532;-72
2023/02/11 09:21:37;;;;;;;15.50;7.35;;;8.50;55.30;;;;;;4967671;28;89163;-67
2023/02/11 09:24:05;;;;;;;18.70;8.05;;;8.20;56.80;;;;;;4964028;28;87879;-70
2023/02/11 09:26:32;;;;;;;14.80;7.30;;;7.80;57.40;;;;;;4968024;28;88925;-71
2023/02/11 09:28:59;;;;;;;15.85;7.35;;;7.60;57.90;;;;;;4970520;28;87559;-72
2023/02/11 09:31:27;;;;;;;15.65;7.30;;;7.30;58.60;;;;;;4989396;28;88721;-71
2023/02/11 09:34:04;;;;;;;16.20;7.63;;;7.30;60.40;;;;;;4994271;28;88355;-73
2023/02/11 09:36:36;;;;;;;16.10;7.32;;;7.30;60.90;;;;;;4974753;28;87792;-73
2023/02/11 09:39:03;;;;;;;15.25;7.13;;;7.20;61.10;;;;;;4971408;28;90264;-73
2023/02/11 09:41:54;;;;;;;12.00;5.75;;;7.10;61.10;;;;;;4971547;28;89769;-71
2023/02/11 09:44:26;;;;;;;13.45;5.95;;;7.00;61.50;;;;;;4966575;28;88541;-72
2023/02/11 09:46:58;;;;;;;11.68;5.57;;;6.70;62.40;;;;;;4967441;28;87345;-72
2023/02/11 09:49:37;;;;;;;14.30;5.95;;;6.50;62.00;;;;;;4963524;28;89287;-72
2023/02/11 09:52:30;;;;;;;13.55;6.00;;;6.50;62.80;;;;;;4967471;28;88517;-73
2023/02/11 09:54:57;;;;;;;13.80;6.03;;;6.40;63.40;;;;;;4967586;28;89145;-72
2023/02/11 09:57:32;;;;;;;13.70;5.57;;;6.40;63.90;;;;;;4965951;28;88503;-71
2023/02/11 09:59:58;;;;;;;12.43;5.50;;;6.50;64.00;;;;;;4962855;28;87151;-71
2023/02/11 10:02:51;;;;;;;12.43;5.25;;;6.60;62.90;;;;;;4968534;28;88428;-73
2023/02/11 10:05:57;;;;;;;11.30;4.95;;;6.70;61.70;;;;;;4969875;28;87803;-72
2023/02/11 10:08:26;;;;;;;11.63;4.97;;;6.80;62.60;;;;;;4976162;28;87975;-72
2023/02/11 10:10:58;;;;;;;12.98;5.00;;;7.00;61.20;;;;;;4984645;28;87954;-73
2023/02/11 10:13:39;;;;;;;11.65;5.20;;;7.30;61.40;;;;;;4974813;28;87745;-70
2023/02/11 10:16:20;;;;;;;12.18;5.05;;;7.80;59.60;;;;;;4972337;28;88245;-72
2023/02/11 10:19:12;;;;;;;11.60;5.05;;;8.40;58.60;;;;;;4969947;28;89303;-71
2023/02/11 10:22:03;;;;;;;10.95;5.35;;;8.80;57.60;;;;;;4968241;28;87634;-71
2023/02/11 10:24:28;;;;;;;13.00;5.90;;;9.00;56.30;;;;;;4968526;28;88020;-72
2023/02/11 10:26:54;;;;;;;11.38;5.95;;;9.00;57.40;;;;;;4967003;28;88241;-72
2023/02/11 10:29:20;;;;;;;13.70;5.57;;;9.00;57.50;;;;;;4967096;28;87847;-72
2023/02/11 10:31:46;;;;;;;12.93;6.30;;;8.90;57.80;;;;;;4963998;28;88233;-72
2023/02/11 10:34:14;;;;;;;14.18;6.13;;;9.10;57.20;;;;;;4966486;28;92322;-73
2023/02/11 10:36:42;;;;;;;13.27;6.35;;;9.10;56.60;;;;;;4967283;28;88668;-72
2023/02/11 10:39:21;;;;;;;13.40;6.10;;;9.10;57.10;;;;;;4964086;28;87620;-69
2023/02/11 10:41:52;;;;;;;11.88;5.68;;;9.10;57.10;;;;;;4969036;28;87532;-73
2023/02/11 10:44:32;;;;;;;10.75;5.85;;;8.90;55.70;;;;;;4970644;28;87826;-70
2023/02/11 10:47:03;;;;;;;11.65;5.75;;;8.50;55.90;;;;;;4964750;28;87997;-75
2023/02/11 10:49:36;;;;;;;12.57;5.78;;;8.60;56.30;;;;;;4969233;28;87507;-72
2023/02/11 10:52:12;;;;;;;15.15;6.78;;;8.60;56.60;;;;;;4968811;28;86712;-77
2023/02/11 10:54:38;;;;;;;13.80;7.15;;;8.40;56.80;;;;;;4965399;28;88306;-68
2023/02/11 10:57:04;;;;;;;16.00;7.00;;;8.50;57.30;;;;;;4964230;28;87463;-70
2023/02/11 10:59:36;;;;;;;13.95;6.38;;;8.40;55.90;;;;;;4963583;28;88067;-70
2023/02/11 11:02:17;;;;;;;12.18;5.70;;;8.40;56.00;;;;;;4966978;28;87311;-68
2023/02/11 11:04:44;;;;;;;13.00;4.97;;;8.40;55.60;;;;;;4968642;28;88611;-67
2023/02/11 11:07:32;;;;;;;12.27;5.45;;;8.50;55.50;;;;;;4963385;28;87959;-74
2023/02/11 11:10:25;;;;;;;13.65;5.55;;;8.80;55.80;;;;;;4967645;28;88100;-72
2023/02/11 11:12:51;;;;;;;14.38;5.43;;;9.00;54.10;;;;;;4967899;28;87326;-73
2023/02/11 11:15:25;;;;;;;11.02;5.15;;;9.10;54.00;;;;;;4969663;28;88140;-70
2023/02/11 11:18:08;;;;;;;13.07;5.18;;;9.10;54.30;;;;;;4966349;28;87452;-72
2023/02/11 11:20:35;;;;;;;15.50;5.85;;;9.30;55.20;;;;;;4965767;28;87881;-72
2023/02/11 11:23:15;;;;;;;14.95;6.05;;;9.10;55.20;;;;;;4963061;28;88614;-72
2023/02/11 11:25:45;;;;;;;13.13;5.68;;;9.00;55.90;;;;;;4967612;28;89092;-71
2023/02/11 11:28:23;;;;;;;15.65;6.07;;;8.90;56.00;;;;;;4970859;28;89234;-72
2023/02/11 11:30:50;;;;;;;14.75;6.50;;;8.60;56.50;;;;;;4963014;28;87409;-71
2023/02/11 11:33:21;;;;;;;14.23;5.95;;;8.20;58.20;;;;;;4969076;28;88312;-73
2023/02/11 11:36:18;;;;;;;12.07;5.85;;;8.00;59.70;;;;;;4966480;28;88102;-72
2023/02/11 11:38:53;;;;;;;14.88;6.65;;;7.90;60.40;;;;;;4964595;28;88990;-71
2023/02/11 11:41:31;;;;;;;12.25;5.78;;;8.00;61.30;;;;;;4963148;28;88071;-72
2023/02/11 11:44:12;;;;;;;12.02;5.75;;;8.40;62.40;;;;;;4964520;28;87012;-72
2023/02/11 11:46:41;;;;;;;14.50;5.93;;;8.90;61.70;;;;;;4964827;28;88541;-71
2023/02/11 11:49:31;;;;;;;14.50;6.15;;;9.20;59.20;;;;;;4966383;28;89428;-72
2023/02/11 11:52:21;;;;;;;12.35;5.60;;;9.20;58.60;;;;;;4966929;28;88446;-71
2023/02/11 11:54:53;;;;;;;15.07;6.32;;;9.20;60.30;;;;;;4965369;28;87652;-72
2023/02/11 11:57:26;;;;;;;14.30;6.93;;;9.00;59.60;;;;;;4963587;28;90016;-72
2023/02/11 11:59:51;;;;;;;15.95;7.07;;;8.80;59.60;;;;;;4993283;28;91051;-71
2023/02/11 12:02:32;;;;;;;16.50;7.22;;;8.60;60.40;;;;;;4971099;28;87359;-71
2023/02/11 12:05:23;;;;;;;14.73;7.03;;;8.40;62.20;;;;;;4974881;28;88554;-73
2023/02/11 12:08:07;;;;;;;21.25;5.95;;;8.30;61.80;;;;;;4962909;28;87893;-71
2023/02/11 12:11:01;;;;;;;13.65;5.85;;;8.10;61.10;;;;;;4964591;28;86818;-72
2023/02/11 12:13:33;;;;;;;13.38;5.43;;;8.00;61.30;;;;;;4967029;28;89206;-72
2023/02/11 12:16:16;;;;;;;11.95;5.45;;;7.90;61.40;;;;;;4966412;28;88938;-72
2023/02/11 12:18:57;;;;;;;12.50;5.88;;;7.90;60.70;;;;;;4968023;28;90327;-72
2023/02/11 12:21:37;;;;;;;12.93;6.10;;;7.90;60.80;;;;;;4960518;28;89417;-73
2023/02/11 12:24:28;;;;;;;13.05;5.65;;;8.10;59.60;;;;;;4965223;28;88219;-72
2023/02/11 12:27:21;;;;;;;12.85;6.40;;;8.10;60.00;;;;;;4968260;28;87656;-72
2023/02/11 12:29:53;;;;;;;16.60;6.38;;;8.30;60.40;;;;;;4966326;28;88200;-73
2023/02/11 12:32:38;;;;;;;17.00;8.00;;;8.50;61.00;;;;;;4966611;28;88056;-72
2023/02/11 12:35:50;;;;;;;16.88;8.15;;;8.60;61.80;;;;;;4968164;28;87712;-72
2023/02/11 12:38:27;;;;;;;17.95;8.30;;;8.90;61.70;;;;;;4976130;28;86733;-71
2023/02/11 12:44:30;;;;;;;19.95;9.25;;;9.30;61.30;;;;;;4971297;28;87895;-72
2023/02/11 12:47:02;;;;;;;16.83;8.57;;;9.30;60.30;;;;;;4967453;28;88366;-71
2023/02/11 12:49:30;;;;;;;16.30;8.50;;;9.30;61.00;;;;;;4965965;28;89528;-72
2023/02/11 12:52:27;;;;;;;19.80;8.55;;;9.40;60.60;;;;;;4971872;28;87697;-72
2023/02/11 12:55:22;;;;;;;17.52;8.82;;;9.40;59.20;;;;;;4975278;28;87421;-72
2023/02/11 12:57:49;;;;;;;17.90;9.40;;;9.10;60.10;;;;;;4973648;28;87985;-72
2023/02/11 13:00:27;;;;;;;18.05;8.27;;;9.00;61.20;;;;;;4982132;28;87834;-72
2023/02/11 13:03:11;;;;;;;16.42;8.45;;;9.20;60.80;;;;;;4979015;28;89611;-72
2023/02/11 13:05:43;;;;;;;18.35;9.00;;;9.20;61.50;;;;;;4975642;28;86949;-72
2023/02/11 13:08:27;;;;;;;16.17;8.95;;;9.10;61.10;;;;;;4975923;28;87309;-72